Bookmark and Share
Track history (hours):
 

Maersk Dayton

Last reported at 2014-Apr-23 08:29 UTC. Time now 2014-Apr-23 09:34 UTC.
Position N 51°18' E 004°16'.

Length 281 m; beam 32.2 m; draft 12.5 m.

Type: Ship (hazmat cat A). MMSI: 218024000.

NotesDate/timePositionNaut miles runAvg speedWind from/ knotsBaromVisibWave heightAir tempDewpointWater temp
2014-Apr-23 08:29N 51°18' E 004°16'0 0.0
2014-Apr-23 07:29N 51°18' E 004°16'0 0.0
2014-Apr-23 06:26N 51°18' E 004°16'0 0.0
2014-Apr-23 05:30N 51°18' E 004°16'0 0.0
2014-Apr-23 04:32N 51°18' E 004°16'0 0.0
2014-Apr-23 03:31N 51°18' E 004°16'0 0.0
2014-Apr-23 02:31N 51°18' E 004°16'0 0.0
2014-Apr-23 01:31N 51°18' E 004°16'0 0.0
2014-Apr-23 00:31N 51°18' E 004°16'0 0.0
2014-Apr-22 23:33N 51°18' E 004°16'0 0.0
2014-Apr-22 22:33N 51°18' E 004°16'0 0.0
2014-Apr-22 21:31N 51°18' E 004°16'0 0.0
2014-Apr-22 20:33N 51°18' E 004°16'0 0.0
2014-Apr-22 19:33N 51°18' E 004°16'2 2.0
2014-Apr-22 18:34N 51°20' E 004°16'1111.4
2014-Apr-22 17:34N 51°26' E 004°01'1211.5
2014-Apr-22 16:34N 51°25' E 003°43'1312.6
2014-Apr-22 15:33N 51°24' E 003°22'1716.9
2014-Apr-22 14:33N 51°22' E 002°55'1212.1
2014-Apr-22 13:33N 51°22' E 002°36'9 8.7
2014-Apr-22 12:33N 51°20' E 002°22'8 8.3
2014-Apr-22 11:34N 51°19' E 002°09'9 8.6
2014-Apr-22 10:34N 51°24' E 001°58'9 9.4
2014-Apr-22 09:34N 51°32' E 001°50'9 9.2
2014-Apr-22 08:34N 51°41' E 001°45'9 9.0
2014-Apr-22 07:33N 51°49' E 001°42'8 8.5
2014-Apr-22 06:34N 51°45' E 001°31'1818.4
2014-Apr-22 05:34N 51°33' E 001°09'1615.8
2014-Apr-22 04:34N 51°30' E 000°44'1211.7
2014-Apr-22 03:34N 51°27' E 000°26'3 3.5
2014-Apr-22 02:33N 51°28' E 000°20'0 0.0
2014-Apr-22 01:34N 51°28' E 000°20'0 0.0
2014-Apr-22 00:34N 51°28' E 000°20'0 0.0
2014-Apr-21 23:34N 51°28' E 000°20'0 0.0
2014-Apr-21 22:34N 51°28' E 000°20'0 0.0
2014-Apr-21 21:33N 51°28' E 000°20'0 0.0
2014-Apr-21 20:34N 51°28' E 000°20'0 0.0
2014-Apr-21 19:33N 51°28' E 000°20'0 0.0
2014-Apr-21 18:34N 51°28' E 000°20'0 0.0
2014-Apr-21 17:34N 51°28' E 000°20'0 0.0
2014-Apr-21 16:34N 51°28' E 000°20'0 0.0
2014-Apr-21 15:33N 51°28' E 000°20'0 0.0
2014-Apr-21 14:34N 51°28' E 000°20'0 0.0
2014-Apr-21 13:33N 51°28' E 000°20'0 0.0
2014-Apr-21 12:34N 51°28' E 000°20'0 0.0
2014-Apr-21 11:34N 51°28' E 000°20'0 0.0
2014-Apr-21 10:34N 51°28' E 000°20'0 0.0
2014-Apr-21 09:34N 51°28' E 000°20'0 0.0
2014-Apr-21 08:33N 51°28' E 000°20'0 0.0
2014-Apr-21 07:34N 51°28' E 000°20'0 0.0
2014-Apr-21 06:34N 51°28' E 000°20'0 0.0
2014-Apr-21 05:34N 51°28' E 000°20'0 0.0
2014-Apr-21 04:34N 51°28' E 000°20'0 0.0
2014-Apr-21 03:34N 51°27' E 000°20'3 3.0
2014-Apr-21 02:34N 51°27' E 000°25'9 9.0
2014-Apr-21 01:33N 51°30' E 000°38'1414.2
2014-Apr-21 00:33N 51°30' E 001°01'1515.3
2014-Apr-20 23:33N 51°38' E 001°22'1817.6
2014-Apr-20 22:34N 51°52' E 001°40'1413.6
2014-Apr-20 21:34N 52°03' E 001°54'1110.8
2014-Apr-20 20:33N 52°10' E 002°06'11 9.9
2014-Apr-20 19:26N 52°17' E 002°20'8 9.6
2014-Apr-20 18:33N 52°23' E 002°31'10 9.6
2014-Apr-20 17:33N 52°29' E 002°43'9 8.7
2014-Apr-20 16:32N 52°35' E 002°54'28 9.5
2014-Apr-20 13:32N 52°50' E 003°33'1513.2
2014-Apr-20 12:23N 52°57' E 003°56'410.0
2014-Apr-20 12:00N 53°00' E 004°00'1126.4 360 / 171010.0 5.4 0.515.011.6 9.7
2014-Apr-20 11:34N 53°06' E 004°16'1413.6
2014-Apr-20 10:33N 53°18' E 004°29'1110.6
2014-Apr-20 09:33N 53°27' E 004°35'1010.5
2014-Apr-20 08:33N 53°32' E 004°51'1010.1
2014-Apr-20 07:33N 53°36' E 005°07'1010.2
2014-Apr-20 06:33N 53°39' E 005°23'1111.1
2014-Apr-20 05:33N 53°42' E 005°41'1111.4
2014-Apr-20 04:33N 53°46' E 005°59'1111.4
2014-Apr-20 03:33N 53°49' E 006°18'1111.2
2014-Apr-20 02:33N 53°52' E 006°36'1110.7
2014-Apr-20 01:33N 53°55' E 006°54'1010.0
2014-Apr-20 00:33N 53°57' E 007°10'915.1
2014-Apr-20 00:00N 53°54' E 007°24'512.2 360 / 71017.010.8 10.0 7.1 8.1
2014-Apr-19 23:33N 53°59' E 007°26'9 9.3
2014-Apr-19 22:33N 54°01' E 007°41'10 9.9
2014-Apr-19 21:33N 54°01' E 007°58'1111.3
2014-Apr-19 20:34N 54°00' E 008°17'1717.4
2014-Apr-19 19:33N 53°52' E 008°44'1514.8
2014-Apr-19 18:34N 53°53' E 009°09'1312.6
2014-Apr-19 17:33N 53°45' E 009°25'1111.1
2014-Apr-19 16:33N 53°36' E 009°36'9 9.4
2014-Apr-19 15:33N 53°33' E 009°51'3 2.5
2014-Apr-19 14:31N 53°32' E 009°55'0 0.0
2014-Apr-19 13:31N 53°32' E 009°55'0 0.0
2014-Apr-19 12:34N 53°32' E 009°55'0 0.0
2014-Apr-19 11:31N 53°32' E 009°55'0 0.0
2014-Apr-19 10:31N 53°32' E 009°55'0 0.0
2014-Apr-19 09:29N 53°32' E 009°55'0 0.0
2014-Apr-19 08:29N 53°32' E 009°55'0 0.0
2014-Apr-19 07:32N 53°32' E 009°55'0 0.0
2014-Apr-19 06:29N 53°32' E 009°55'0 0.0
2014-Apr-19 05:32N 53°32' E 009°55'0 0.0
2014-Apr-19 04:33N 53°32' E 009°55'0 0.0
2014-Apr-19 03:33N 53°32' E 009°55'0 0.0
2014-Apr-19 02:31N 53°32' E 009°55'0 0.0
2014-Apr-19 01:31N 53°32' E 009°55'0 0.0
2014-Apr-19 00:28N 53°32' E 009°55'0 0.0
2014-Apr-18 23:30N 53°32' E 009°55'0 0.0
2014-Apr-18 22:33N 53°32' E 009°55'0 0.0
2014-Apr-18 21:31N 53°32' E 009°55'0 0.0
2014-Apr-18 20:31N 53°32' E 009°55'0 0.0
2014-Apr-18 19:31N 53°32' E 009°55'0 0.0
2014-Apr-18 18:31N 53°32' E 009°55'0 0.0
2014-Apr-18 17:31N 53°32' E 009°55'0 0.0
2014-Apr-18 16:28N 53°32' E 009°55'0 0.0
2014-Apr-18 15:31N 53°32' E 009°55'0 0.0
2014-Apr-18 14:31N 53°32' E 009°55'0 0.0
2014-Apr-18 13:28N 53°32' E 009°55'0 0.0
2014-Apr-18 12:31N 53°32' E 009°55'0 0.0
2014-Apr-18 11:31N 53°32' E 009°55'0 0.0
2014-Apr-18 10:32N 53°32' E 009°55'0 0.0
2014-Apr-18 09:33N 53°32' E 009°55'0 0.0
2014-Apr-18 08:33N 53°32' E 009°55'0 0.0
2014-Apr-18 07:33N 53°32' E 009°55'0 0.0
2014-Apr-18 06:33N 53°32' E 009°55'0 0.0
2014-Apr-18 05:33N 53°32' E 009°55'0 0.0
2014-Apr-18 04:33N 53°32' E 009°55'5 4.9
2014-Apr-18 03:33N 53°33' E 009°47'1010.5
2014-Apr-18 02:33N 53°38' E 009°31'1212.3
2014-Apr-18 01:34N 53°49' E 009°22'1111.5
2014-Apr-18 00:33N 53°52' E 009°03'1211.8
2014-Apr-17 23:33N 53°53' E 008°43'1514.5
2014-Apr-17 22:33N 53°59' E 008°21'1313.0
2014-Apr-17 21:34N 53°58' E 007°59'1313.0
2014-Apr-17 20:33N 53°55' E 007°37'1312.9
2014-Apr-17 19:34N 53°53' E 007°16'1313.1
2014-Apr-17 18:33N 53°50' E 006°54'1514.8
2014-Apr-17 17:33N 53°47' E 006°29'1616.0
2014-Apr-17 16:33N 53°42' E 006°04'1615.9
2014-Apr-17 15:34N 53°37' E 005°38'1615.7
2014-Apr-17 14:33N 53°32' E 005°13'1615.7
2014-Apr-17 13:34N 53°26' E 004°49'1515.2
2014-Apr-17 12:34N 53°14' E 004°34'1615.8
2014-Apr-17 11:33N 53°00' E 004°21'1515.2
2014-Apr-17 10:33N 52°47' E 004°10'1514.7
2014-Apr-17 09:33N 52°34' E 003°56'1817.6
2014-Apr-17 08:34N 52°17' E 003°52'1615.9
2014-Apr-17 07:33N 52°01' E 003°57'1212.3
2014-Apr-17 06:33N 51°55' E 004°14'7 6.5
2014-Apr-17 05:34N 51°53' E 004°24'0 0.3
2014-Apr-17 04:33N 51°53' E 004°24'0 0.0
2014-Apr-17 03:33N 51°53' E 004°24'0 0.0
2014-Apr-17 02:32N 51°53' E 004°24'0 0.0
2014-Apr-17 01:33N 51°53' E 004°24'0 0.0
2014-Apr-17 00:33N 51°53' E 004°24'0 0.0
2014-Apr-16 23:33N 51°53' E 004°24'0 0.0
2014-Apr-16 22:33N 51°53' E 004°24'0 0.0
2014-Apr-16 20:33N 51°53' E 004°24'0 0.0
2014-Apr-16 19:33N 51°53' E 004°24'0 0.0
2014-Apr-16 18:33N 51°53' E 004°24'0 0.0
2014-Apr-16 17:30N 51°53' E 004°24'0 0.0
2014-Apr-16 16:33N 51°53' E 004°24'0 0.0
2014-Apr-16 15:33N 51°53' E 004°24'0 0.0
2014-Apr-16 14:33N 51°53' E 004°24'0 0.0
2014-Apr-16 13:33N 51°53' E 004°24'0 0.0
2014-Apr-16 12:32N 51°53' E 004°24'0 0.0
2014-Apr-16 11:31N 51°53' E 004°24'0 0.0
2014-Apr-16 10:31N 51°53' E 004°24'0 0.0
2014-Apr-16 09:32N 51°53' E 004°24'0 0.0
2014-Apr-16 08:32N 51°53' E 004°24'0 0.0
2014-Apr-16 07:33N 51°53' E 004°24'1 0.6
2014-Apr-16 06:33N 51°53' E 004°24'7 6.8
2014-Apr-16 05:33N 51°55' E 004°14'8 8.4
2014-Apr-16 04:33N 51°60' E 004°02'1010.5
2014-Apr-16 03:33N 51°59' E 003°45'8 7.5
2014-Apr-16 02:33N 51°58' E 003°33'1312.8
2014-Apr-16 01:33N 51°53' E 003°13'2018.2
2014-Apr-16 00:27N 51°48' E 002°42'1617.9
2014-Apr-15 23:34N 51°37' E 002°23'1716.9
2014-Apr-15 22:33N 51°22' E 002°10'1615.8
2014-Apr-15 21:33N 51°10' E 001°53'1515.5
2014-Apr-15 20:33N 51°01' E 001°34'1514.7
2014-Apr-15 19:31N 50°48' E 001°22'1414.8
2014-Apr-15 18:33N 50°36' E 001°08'1515.3
2014-Apr-15 17:34N 50°29' E 000°47'1514.9
2014-Apr-15 16:33N 50°24' E 000°25'5711.5
2014-Apr-15 11:34N 50°10' W 001°02'1515.0
2014-Apr-15 10:34N 50°06' W 001°24'31719.1
2014-Apr-14 18:00N 49°06' W 009°24'22118.4 210 / 261024.010.8 1.012.0 7.3
2014-Apr-14 06:00N 48°12' W 014°48'22018.4 220 / 241025.027.0 0.511.7 5.411.5
2014-Apr-13 18:00N 47°06' W 020°00'   200 / 221027.027.0 0.512.7 9.611.9

Dump ship's entire track history

sailing weather and tide predictions

Maersk Dayton — DDSC2 — position and weather